EGMCEGMD

Guest
Details From EGMC - Southend
To EGMD - Lydd
Flight Number -
Tags generated
Created
Modified
Stats Distance 38 nm / 71 km
Max Altitude 700 ft / 213 m
Waypoints 3
Social Downloads 2
Likes 0
Share VATSIM

Download

Looking for another format? Having issues loading an existing format? Contact us
Advertisement - Login to hide

Notes

Basic altitude profile: - Ascent Rate: 2500ft/min - Ascent Speed: 250kts - Cruise Altitude: 35000ft - Cruise Speed: 420kts - Descent Rate: 1500ft/min - Descent Speed: 250kts Options: - Use NATs: yes - Use PACOTS: yes - Use low airways: yes - Use high airways: yes

Route

EGMC LYD EGMD

ID Type Via Altitude Latitude Longitude Leg Dist Tot Dist Heading (true) Name
O EGMC APT - 0 ft / 0 m 51.57144˚ 0.69558˚ - 0 nm - Southend
LYD VOR - 700 ft / 213 m 50.99972˚ 0.87861˚ 35 nm 35 nm 169° / 169° LYDD VOR-DME
O EGMD APT - 0 ft / 0 m 50.95617˚ 0.93915˚ 3 nm 38 nm 139° / 139° Lydd

Altitude Profile

Advertisement - Login to hide

EGMC

Details ICAO EGMC (SEN)
Name Southend
Region United Kingdom
Timezone Europe/London (UTC+0.0)
Stats Elevation 49 ft / 15 m (AMSL)
Location 51.571443° 0.695583°
Runways 1
Magnetic Variation 0.169° W

METAR

EGMC 181850Z 30002KT 9000 NSC 02/01 Q1031

Decode

TAF

Not found

Departure Runways

ID Width Length Bearing (true) Bearing (mag) Surface Threshold Offset Overrun Length
06 121 ft / 37 m 5,230 ft / 1,594 m 54.10° 54.27° Asphalt 558 ft / 170 m 0 ft / 0 m
24 121 ft / 37 m 5,230 ft / 1,594 m 234.11° 234.28° Asphalt 466 ft / 142 m 0 ft / 0 m

EGMD

Details ICAO EGMD (LYX)
Name Lydd
Region United Kingdom
Timezone Europe/London (UTC+0.0)
Stats Elevation 13 ft / 4 m (AMSL)
Location 50.956171° 0.939147°
Runways 1
Magnetic Variation 0.028° W

METAR

EGMD 181850Z AUTO 33006KT 9999 NCD 02/01 Q1032

Decode

TAF

Not found

Destination Runways

ID Width Length Bearing (true) Bearing (mag) Surface Threshold Offset Overrun Length
03 105 ft / 32 m 4,928 ft / 1,502 m 32.64° 32.67° Asphalt 0 ft / 0 m 0 ft / 0 m
21 105 ft / 32 m 4,928 ft / 1,502 m 212.65° 212.68° Asphalt 112 ft / 34 m 0 ft / 0 m

Approach Navaids

Runway Type Ident Frequency Range Bearing (true) Bearing (mag) Slope Elevation
21 Localiser ILDY 108.15 MHz 18 nm / 33 km 203.16° 203.19° - 13 ft / 4 m (AMSL)
21 Glidescope ILDY 108.15 MHz 10 nm / 19 km 212.65° 212.68° 3.50° 13 ft / 4 m (AMSL)

Popular Alternatives